Time;durP1;ratioP1;P1;durP2;ratioP2;P2;SDS_P1;SDS_P2;PMS_P1;PMS_P2;Temp;Humidity;BMP_temperature;BMP_pressure;BME280_temperature;BME280_humidity;BME280_pressure;Samples;Min_cycle;Max_cycle;Signal;HPM_P1;HPM_P2
2024/02/22 00:01:55;;;;;;;5.32;4.82;;;;;;;;;;5032221;28;20264;-78
2024/02/22 00:04:21;;;;;;;6.05;5.10;;;;;;;;;;5031745;28;20202;-77
2024/02/22 00:06:48;;;;;;;5.90;4.93;;;;;;;;;;5031309;28;20433;-77
2024/02/22 00:09:13;;;;;;;5.90;5.30;;;;;;;;;;5037433;28;20177;-77
2024/02/22 00:11:40;;;;;;;5.53;4.82;;;;;;;;;;5036886;28;20211;-77
2024/02/22 00:14:06;;;;;;;6.18;5.35;;;;;;;;;;5029248;28;20190;-77
2024/02/22 00:16:33;;;;;;;7.35;5.22;;;;;;;;;;5030738;28;20194;-78
2024/02/22 00:18:59;;;;;;;6.20;5.60;;;;;;;;;;5040201;28;20748;-77
2024/02/22 00:21:24;;;;;;;5.90;5.35;;;;;;;;;;5032649;28;20194;-77
2024/02/22 00:23:49;;;;;;;5.97;5.38;;;;;;;;;;5038602;28;20181;-77
2024/02/22 00:26:15;;;;;;;7.13;5.68;;;;;;;;;;5038269;28;20722;-79
2024/02/22 00:28:40;;;;;;;6.18;5.63;;;;;;;;;;5046641;28;20189;-78
2024/02/22 00:31:06;;;;;;;6.50;5.90;;;;;;;;;;5016314;28;20201;-76
2024/02/22 00:33:31;;;;;;;6.40;5.80;;;;;;;;;;5026638;28;20193;-77
2024/02/22 00:35:57;;;;;;;6.50;5.68;;;;;;;;;;5040416;28;20525;-77
2024/02/22 00:38:22;;;;;;;6.95;5.88;;;;;;;;;;5030967;28;20213;-78
2024/02/22 00:40:48;;;;;;;6.40;5.80;;;;;;;;;;5036269;28;20727;-77
2024/02/22 00:43:14;;;;;;;6.55;5.95;;;;;;;;;;5009412;28;20669;-77
2024/02/22 00:45:39;;;;;;;6.30;5.70;;;;;;;;;;5012781;28;20253;-77
2024/02/22 00:48:05;;;;;;;7.88;6.10;;;;;;;;;;5031444;28;20538;-77
2024/02/22 00:50:30;;;;;;;6.35;5.72;;;;;;;;;;5039168;28;20229;-77
2024/02/22 00:52:56;;;;;;;6.22;5.60;;;;;;;;;;5038947;28;20190;-77
2024/02/22 00:55:21;;;;;;;6.60;5.53;;;;;;;;;;5036454;28;20194;-77
2024/02/22 00:57:47;;;;;;;6.47;5.65;;;;;;;;;;5029836;28;20513;-78
2024/02/22 01:00:13;;;;;;;6.88;6.22;;;;;;;;;;5039895;28;20634;-77
2024/02/22 01:02:38;;;;;;;5.82;5.32;;;;;;;;;;5025176;28;20220;-76
2024/02/22 01:05:04;;;;;;;6.20;5.60;;;;;;;;;;5027250;28;20265;-77
2024/02/22 01:07:31;;;;;;;6.10;5.50;;;;;;;;;;5037676;28;20653;-76
2024/02/22 01:09:57;;;;;;;6.38;5.78;;;;;;;;;;5018809;28;20273;-76
2024/02/22 01:12:23;;;;;;;6.75;5.93;;;;;;;;;;5021959;28;20285;-76
2024/02/22 01:14:48;;;;;;;6.70;5.85;;;;;;;;;;5044420;28;20275;-78
2024/02/22 01:17:14;;;;;;;5.93;5.32;;;;;;;;;;5017350;28;20196;-77
2024/02/22 01:19:39;;;;;;;6.15;5.55;;;;;;;;;;5032352;28;20289;-78
2024/02/22 01:22:05;;;;;;;5.97;5.47;;;;;;;;;;5012742;28;20178;-76
2024/02/22 01:24:31;;;;;;;6.15;5.63;;;;;;;;;;5033427;28;20198;-76
2024/02/22 01:26:57;;;;;;;6.82;6.22;;;;;;;;;;5028975;28;20190;-76
2024/02/22 01:29:22;;;;;;;6.00;5.50;;;;;;;;;;5036606;28;20194;-77
2024/02/22 01:31:47;;;;;;;6.40;5.80;;;;;;;;;;5029320;28;20216;-76
2024/02/22 01:34:13;;;;;;;6.80;6.20;;;;;;;;;;5034246;28;20284;-77
2024/02/22 01:36:38;;;;;;;7.72;6.13;;;;;;;;;;5015201;28;20657;-76
2024/02/22 01:39:06;;;;;;;6.57;5.97;;;;;;;;;;5026765;28;20197;-76
2024/02/22 01:41:31;;;;;;;7.47;6.78;;;;;;;;;;5011320;28;20244;-76
2024/02/22 01:43:57;;;;;;;7.53;6.72;;;;;;;;;;5031490;28;20194;-76
2024/02/22 01:46:23;;;;;;;7.22;6.55;;;;;;;;;;5019635;28;20692;-76
2024/02/22 01:48:49;;;;;;;8.77;6.97;;;;;;;;;;5041531;28;20671;-76
2024/02/22 01:51:15;;;;;;;6.68;6.07;;;;;;;;;;5028214;28;20320;-77
2024/02/22 01:53:41;;;;;;;7.93;6.72;;;;;;;;;;5012911;28;20709;-76
2024/02/22 01:56:07;;;;;;;8.13;7.32;;;;;;;;;;5028337;28;20268;-77
2024/02/22 01:58:34;;;;;;;8.88;7.45;;;;;;;;;;5020274;28;20251;-76
2024/02/22 02:01:01;;;;;;;8.05;7.25;;;;;;;;;;5030030;28;20186;-76
2024/02/22 02:03:28;;;;;;;8.48;7.57;;;;;;;;;;5027746;28;20273;-76
2024/02/22 02:05:53;;;;;;;7.90;7.20;;;;;;;;;;5027074;28;20560;-77
2024/02/22 02:08:19;;;;;;;8.10;7.30;;;;;;;;;;5033753;28;20194;-76
2024/02/22 02:10:46;;;;;;;8.88;7.97;;;;;;;;;;5028333;28;20209;-76
2024/02/22 02:13:12;;;;;;;9.25;8.02;;;;;;;;;;5040544;28;20267;-76
2024/02/22 02:15:38;;;;;;;8.88;7.97;;;;;;;;;;5032376;28;20191;-76
2024/02/22 02:18:04;;;;;;;8.60;7.70;;;;;;;;;;5036713;28;20240;-76
2024/02/22 02:20:53;;;;;;;8.85;8.05;;;;;;;;;;5039399;28;20189;-77
2024/02/22 02:23:50;;;;;;;8.50;7.65;;;;;;;;;;5038333;28;20209;-77
2024/02/22 02:26:16;;;;;;;9.40;7.45;;;;;;;;;;5028320;28;20583;-76
2024/02/22 02:28:41;;;;;;;8.23;7.43;;;;;;;;;;5031315;28;20204;-77
2024/02/22 02:31:07;;;;;;;10.23;7.95;;;;;;;;;;5030037;28;20220;-76
2024/02/22 02:33:33;;;;;;;7.85;6.50;;;;;;;;;;5028194;28;20426;-77
2024/02/22 02:35:58;;;;;;;8.02;7.22;;;;;;;;;;5029782;28;20248;-76
2024/02/22 02:38:24;;;;;;;7.85;7.03;;;;;;;;;;5030476;28;20206;-77
2024/02/22 02:40:49;;;;;;;10.10;7.50;;;;;;;;;;5041826;28;20189;-77
2024/02/22 02:43:14;;;;;;;8.45;7.55;;;;;;;;;;5034618;28;20193;-77
2024/02/22 02:45:40;;;;;;;8.05;7.20;;;;;;;;;;5029154;28;20276;-77
2024/02/22 02:48:06;;;;;;;7.85;6.90;;;;;;;;;;5051677;28;20276;-77
2024/02/22 02:50:31;;;;;;;7.55;6.75;;;;;;;;;;5037157;28;20292;-78
2024/02/22 02:52:57;;;;;;;7.95;7.15;;;;;;;;;;5040532;28;20186;-77
2024/02/22 02:55:23;;;;;;;9.23;8.18;;;;;;;;;;5021299;28;20186;-77
2024/02/22 02:57:49;;;;;;;9.27;7.43;;;;;;;;;;5028855;28;20198;-77
2024/02/22 03:00:15;;;;;;;8.43;7.53;;;;;;;;;;5033006;28;20502;-77
2024/02/22 03:02:41;;;;;;;8.82;7.75;;;;;;;;;;5044820;28;20182;-76
2024/02/22 03:05:08;;;;;;;9.30;7.32;;;;;;;;;;5015807;28;20650;-77
2024/02/22 03:07:34;;;;;;;9.18;7.57;;;;;;;;;;5039340;28;20194;-76
2024/02/22 03:09:59;;;;;;;8.13;7.15;;;;;;;;;;5033856;28;20342;-76
2024/02/22 03:12:25;;;;;;;10.18;7.25;;;;;;;;;;5033007;28;20197;-77
2024/02/22 03:14:50;;;;;;;8.30;7.35;;;;;;;;;;5045313;28;20303;-77
2024/02/22 03:17:17;;;;;;;9.65;7.97;;;;;;;;;;5048615;28;20678;-77
2024/02/22 03:19:42;;;;;;;9.48;8.00;;;;;;;;;;5007469;28;20237;-76
2024/02/22 03:22:09;;;;;;;8.88;7.18;;;;;;;;;;5023769;28;20214;-77
2024/02/22 03:24:36;;;;;;;10.15;8.07;;;;;;;;;;5052916;28;20181;-77
2024/02/22 03:27:03;;;;;;;11.50;8.23;;;;;;;;;;5027528;28;20649;-78
2024/02/22 03:29:31;;;;;;;10.00;7.30;;;;;;;;;;5018699;28;20520;-77
2024/02/22 03:31:56;;;;;;;9.82;7.88;;;;;;;;;;5017944;28;20641;-76
2024/02/22 03:34:22;;;;;;;9.52;7.72;;;;;;;;;;5046196;28;20212;-76
2024/02/22 03:36:48;;;;;;;11.30;8.05;;;;;;;;;;5039663;28;20190;-77
2024/02/22 03:39:14;;;;;;;11.90;8.32;;;;;;;;;;5029651;28;20190;-77
2024/02/22 03:41:40;;;;;;;9.18;7.68;;;;;;;;;;5044950;28;20192;-76
2024/02/22 03:44:06;;;;;;;11.57;8.27;;;;;;;;;;5036555;28;20217;-76
2024/02/22 03:46:31;;;;;;;10.68;8.00;;;;;;;;;;5035756;28;20553;-76
2024/02/22 03:48:57;;;;;;;10.65;7.38;;;;;;;;;;5034567;28;20282;-76
2024/02/22 03:51:22;;;;;;;10.40;8.50;;;;;;;;;;5031250;28;20201;-76
2024/02/22 03:53:49;;;;;;;10.77;8.45;;;;;;;;;;5032797;28;20186;-76
2024/02/22 03:56:15;;;;;;;11.38;8.52;;;;;;;;;;5038770;28;20314;-76
2024/02/22 03:58:40;;;;;;;12.52;8.48;;;;;;;;;;5037550;28;20314;-78
2024/02/22 04:01:05;;;;;;;12.23;9.25;;;;;;;;;;5038765;28;20318;-78
2024/02/22 04:03:31;;;;;;;13.40;9.77;;;;;;;;;;5030042;28;20178;-76
2024/02/22 04:05:57;;;;;;;14.90;9.63;;;;;;;;;;5044429;28;20178;-76
2024/02/22 04:08:22;;;;;;;16.80;9.77;;;;;;;;;;5039469;28;20198;-76
2024/02/22 04:10:48;;;;;;;14.20;9.68;;;;;;;;;;5030877;28;20339;-75
2024/02/22 04:13:13;;;;;;;16.95;10.10;;;;;;;;;;5029397;28;20277;-76
2024/02/22 04:15:39;;;;;;;15.27;10.05;;;;;;;;;;5038927;28;20185;-76
2024/02/22 04:18:04;;;;;;;17.65;10.90;;;;;;;;;;5030818;28;20240;-76
2024/02/22 04:20:30;;;;;;;17.77;10.15;;;;;;;;;;5019337;28;20186;-76
2024/02/22 04:22:55;;;;;;;16.02;9.95;;;;;;;;;;5041470;28;20201;-76
2024/02/22 04:25:21;;;;;;;18.73;11.68;;;;;;;;;;5031577;28;20269;-76
2024/02/22 04:27:47;;;;;;;18.80;11.02;;;;;;;;;;5030965;28;20217;-78
2024/02/22 04:30:13;;;;;;;21.77;11.40;;;;;;;;;;5020195;28;20181;-78
2024/02/22 04:32:39;;;;;;;20.10;11.40;;;;;;;;;;5032637;28;20654;-76
2024/02/22 04:35:06;;;;;;;22.83;12.18;;;;;;;;;;5013784;28;20182;-76
2024/02/22 04:37:32;;;;;;;21.73;13.18;;;;;;;;;;5041116;28;20662;-76
2024/02/22 04:39:58;;;;;;;25.08;13.60;;;;;;;;;;5042018;28;20208;-76
2024/02/22 04:42:23;;;;;;;27.20;13.23;;;;;;;;;;5029727;28;20194;-76
2024/02/22 04:44:49;;;;;;;28.42;14.98;;;;;;;;;;5042435;28;20189;-76
2024/02/22 04:47:14;;;;;;;28.98;14.52;;;;;;;;;;5034173;28;20193;-76
2024/02/22 04:49:40;;;;;;;30.40;14.23;;;;;;;;;;5031118;28;20737;-76
2024/02/22 04:52:05;;;;;;;29.83;15.80;;;;;;;;;;5032135;28;20233;-76
2024/02/22 04:54:32;;;;;;;33.22;15.90;;;;;;;;;;5027764;28;20193;-76
2024/02/22 04:56:58;;;;;;;33.53;16.77;;;;;;;;;;5028151;28;20197;-77
2024/02/22 04:59:24;;;;;;;33.28;16.77;;;;;;;;;;5028896;28;20178;-76
2024/02/22 05:01:49;;;;;;;34.05;15.77;;;;;;;;;;5013323;28;20840;-77
2024/02/22 05:04:16;;;;;;;33.15;16.45;;;;;;;;;;5023098;28;20209;-77
2024/02/22 05:06:42;;;;;;;34.42;16.65;;;;;;;;;;5023577;28;20189;-76
2024/02/22 05:09:12;;;;;;;34.05;16.33;;;;;;;;;;5034498;28;20201;-76
2024/02/22 05:11:47;;;;;;;32.45;16.75;;;;;;;;;;5041555;28;20213;-77
2024/02/22 05:14:13;;;;;;;42.53;18.20;;;;;;;;;;5016585;28;20191;-77
2024/02/22 05:16:38;;;;;;;34.03;15.82;;;;;;;;;;5028209;28;20261;-77
2024/02/22 05:19:03;;;;;;;39.97;17.90;;;;;;;;;;5034743;28;20237;-77
2024/02/22 05:21:29;;;;;;;41.45;18.08;;;;;;;;;;5023922;28;20198;-76
2024/02/22 05:23:54;;;;;;;37.03;17.55;;;;;;;;;;5039539;28;20186;-77
2024/02/22 05:26:20;;;;;;;40.33;18.42;;;;;;;;;;5032754;28;20719;-76
2024/02/22 05:28:45;;;;;;;37.63;17.85;;;;;;;;;;5013196;28;20577;-76
2024/02/22 05:31:25;;;;;;;45.90;18.30;;;;;;;;;;5033391;28;20225;-76
2024/02/22 05:33:50;;;;;;;48.80;18.48;;;;;;;;;;5036655;28;20190;-76
2024/02/22 05:36:20;;;;;;;44.05;18.23;;;;;;;;;;5016340;28;20597;-76
2024/02/22 05:38:47;;;;;;;38.10;17.42;;;;;;;;;;5030364;28;20181;-77
2024/02/22 05:41:14;;;;;;;44.72;19.27;;;;;;;;;;5038928;28;20320;-77
2024/02/22 05:43:39;;;;;;;40.20;17.73;;;;;;;;;;5032608;28;20559;-76
2024/02/22 05:46:05;;;;;;;36.47;16.67;;;;;;;;;;5030221;28;20186;-76
2024/02/22 05:48:30;;;;;;;39.15;19.17;;;;;;;;;;5034471;28;20219;-77
2024/02/22 05:50:56;;;;;;;39.80;18.27;;;;;;;;;;5031135;28;20218;-76
2024/02/22 05:53:22;;;;;;;34.88;16.45;;;;;;;;;;5036788;28;20298;-76
2024/02/22 05:55:47;;;;;;;44.80;18.08;;;;;;;;;;5020601;28;20264;-76
2024/02/22 05:58:16;;;;;;;43.10;18.08;;;;;;;;;;5018853;28;20604;-77
2024/02/22 06:00:41;;;;;;;37.20;17.92;;;;;;;;;;5021253;28;20193;-76
2024/02/22 06:03:08;;;;;;;32.90;18.30;;;;;;;;;;5032333;28;20186;-77
2024/02/22 06:05:34;;;;;;;37.55;19.60;;;;;;;;;;5041280;28;20293;-76
2024/02/22 06:08:00;;;;;;;43.35;18.50;;;;;;;;;;5037400;28;20387;-76
2024/02/22 06:10:27;;;;;;;35.15;18.23;;;;;;;;;;5031788;28;20726;-76
2024/02/22 06:12:53;;;;;;;39.70;17.95;;;;;;;;;;5028386;28;20283;-76
2024/02/22 06:15:19;;;;;;;43.25;17.77;;;;;;;;;;5032126;28;20226;-76
2024/02/22 06:17:44;;;;;;;35.10;18.52;;;;;;;;;;5036802;28;20236;-76
2024/02/22 06:20:10;;;;;;;43.13;18.85;;;;;;;;;;5011554;28;20575;-76
2024/02/22 06:22:35;;;;;;;40.00;19.00;;;;;;;;;;5014009;28;20191;-76
2024/02/22 06:25:01;;;;;;;38.13;18.90;;;;;;;;;;5013007;28;20218;-76
2024/02/22 06:27:27;;;;;;;43.47;18.77;;;;;;;;;;5033743;28;20273;-76
2024/02/22 06:29:52;;;;;;;39.10;19.33;;;;;;;;;;5036553;28;20615;-76
2024/02/22 06:32:17;;;;;;;35.50;18.02;;;;;;;;;;5034312;28;20691;-76
2024/02/22 06:34:43;;;;;;;38.88;17.65;;;;;;;;;;5036862;28;20569;-76
2024/02/22 06:37:10;;;;;;;43.17;16.58;;;;;;;;;;5030880;28;20228;-76
2024/02/22 06:39:35;;;;;;;40.90;17.63;;;;;;;;;;5036875;28;20190;-76
2024/02/22 06:42:01;;;;;;;40.40;17.35;;;;;;;;;;5028998;28;20187;-77
2024/02/22 06:44:27;;;;;;;39.13;17.25;;;;;;;;;;5031485;28;20182;-77
2024/02/22 06:46:52;;;;;;;39.38;16.67;;;;;;;;;;5039060;28;20201;-76
2024/02/22 06:49:18;;;;;;;43.35;17.88;;;;;;;;;;5039847;28;20190;-76
2024/02/22 06:51:44;;;;;;;45.28;17.23;;;;;;;;;;5038402;28;20213;-78
2024/02/22 06:54:09;;;;;;;42.65;17.00;;;;;;;;;;5020706;28;20665;-76
2024/02/22 06:56:35;;;;;;;43.40;16.23;;;;;;;;;;5031295;28;20226;-76
2024/02/22 06:59:00;;;;;;;35.65;18.00;;;;;;;;;;5028156;28;20664;-76
2024/02/22 07:01:26;;;;;;;36.55;16.10;;;;;;;;;;5033053;28;20181;-76
2024/02/22 07:03:51;;;;;;;36.90;16.55;;;;;;;;;;5040517;28;20564;-76
2024/02/22 07:06:17;;;;;;;42.78;16.33;;;;;;;;;;5036056;28;20186;-76
2024/02/22 07:08:42;;;;;;;38.80;16.30;;;;;;;;;;5039033;28;20185;-77
2024/02/22 07:11:11;;;;;;;43.17;15.25;;;;;;;;;;5035023;28;20213;-77
2024/02/22 07:13:36;;;;;;;33.58;15.32;;;;;;;;;;5030203;28;20650;-77
2024/02/22 07:16:03;;;;;;;37.28;15.73;;;;;;;;;;5012572;28;20190;-76
2024/02/22 07:18:28;;;;;;;38.78;16.20;;;;;;;;;;5030445;28;20254;-77
2024/02/22 07:20:56;;;;;;;36.30;15.57;;;;;;;;;;5015107;28;20220;-79
2024/02/22 07:23:22;;;;;;;35.72;15.27;;;;;;;;;;5033476;28;20175;-76
2024/02/22 07:25:47;;;;;;;27.80;13.40;;;;;;;;;;5039241;28;20276;-76
2024/02/22 07:28:14;;;;;;;32.08;13.45;;;;;;;;;;5033506;28;20276;-77
2024/02/22 07:30:39;;;;;;;28.77;12.18;;;;;;;;;;5027088;28;20797;-77
2024/02/22 07:33:05;;;;;;;31.13;13.02;;;;;;;;;;5021352;28;20272;-77
2024/02/22 07:35:30;;;;;;;29.75;11.25;;;;;;;;;;5029132;28;20202;-76
2024/02/22 07:37:56;;;;;;;35.38;11.73;;;;;;;;;;5030294;28;20260;-77
2024/02/22 07:40:23;;;;;;;31.50;11.18;;;;;;;;;;5026849;28;20579;-77
2024/02/22 07:42:48;;;;;;;29.25;11.23;;;;;;;;;;5040399;28;20578;-76
2024/02/22 07:45:14;;;;;;;34.20;10.93;;;;;;;;;;5029635;28;20224;-78
2024/02/22 07:47:39;;;;;;;29.85;10.35;;;;;;;;;;5030227;28;20779;-77
2024/02/22 07:50:10;;;;;;;36.55;11.27;;;;;;;;;;5044233;28;20205;-76
2024/02/22 07:52:40;;;;;;;26.80;10.60;;;;;;;;;;5034880;28;20243;-77
2024/02/22 07:55:06;;;;;;;32.20;10.43;;;;;;;;;;5037718;28;20220;-77
2024/02/22 07:57:32;;;;;;;31.30;11.30;;;;;;;;;;5030841;28;20192;-77
2024/02/22 07:59:58;;;;;;;34.88;11.32;;;;;;;;;;5017209;28;20616;-77
2024/02/22 08:02:24;;;;;;;34.28;11.93;;;;;;;;;;5037719;28;20189;-76
2024/02/22 08:04:50;;;;;;;40.60;12.23;;;;;;;;;;5031259;28;20320;-78
2024/02/22 08:07:16;;;;;;;30.88;11.68;;;;;;;;;;5037729;28;20197;-77
2024/02/22 08:09:42;;;;;;;32.03;12.38;;;;;;;;;;5051375;28;20181;-79
2024/02/22 08:12:07;;;;;;;32.72;11.93;;;;;;;;;;5029222;28;20368;-77
2024/02/22 08:14:33;;;;;;;36.03;13.63;;;;;;;;;;5026064;28;20181;-77
2024/02/22 08:16:58;;;;;;;32.08;12.25;;;;;;;;;;5030998;28;20280;-77
2024/02/22 08:19:24;;;;;;;31.50;13.55;;;;;;;;;;5030623;28;20944;-77
2024/02/22 08:21:51;;;;;;;39.00;12.80;;;;;;;;;;5040497;28;20199;-77
2024/02/22 08:24:17;;;;;;;38.00;13.95;;;;;;;;;;5028383;28;20194;-77
2024/02/22 08:26:42;;;;;;;30.40;13.30;;;;;;;;;;5018058;28;20204;-77
2024/02/22 08:29:09;;;;;;;29.42;13.68;;;;;;;;;;5013157;28;20478;-77
2024/02/22 08:31:34;;;;;;;29.08;12.68;;;;;;;;;;5041933;28;20724;-77
2024/02/22 08:34:00;;;;;;;27.88;13.30;;;;;;;;;;5035798;28;20197;-76
2024/02/22 08:36:25;;;;;;;31.88;13.43;;;;;;;;;;5036680;28;20190;-77
2024/02/22 08:38:50;;;;;;;36.85;15.63;;;;;;;;;;5022368;28;20277;-76
2024/02/22 08:41:16;;;;;;;26.85;14.30;;;;;;;;;;5039658;28;20221;-77
2024/02/22 08:43:42;;;;;;;31.83;13.38;;;;;;;;;;5024232;28;20222;-77
2024/02/22 08:46:07;;;;;;;35.33;12.98;;;;;;;;;;5033710;28;20221;-77
2024/02/22 08:48:35;;;;;;;32.60;13.13;;;;;;;;;;5009138;28;20659;-77
2024/02/22 08:51:01;;;;;;;28.83;13.73;;;;;;;;;;5026537;28;20214;-77
2024/02/22 08:53:26;;;;;;;29.27;13.00;;;;;;;;;;5035972;28;20197;-77
2024/02/22 08:55:52;;;;;;;33.28;13.65;;;;;;;;;;5032617;28;20193;-76
2024/02/22 08:58:17;;;;;;;24.30;13.23;;;;;;;;;;5024097;28;20182;-77
2024/02/22 09:00:43;;;;;;;27.23;13.05;;;;;;;;;;5029592;28;20533;-77
2024/02/22 09:03:09;;;;;;;21.67;13.73;;;;;;;;;;5024280;28;20250;-77
2024/02/22 09:05:36;;;;;;;25.85;12.32;;;;;;;;;;5025528;28;20558;-77
2024/02/22 09:08:02;;;;;;;27.98;12.70;;;;;;;;;;5012024;28;20665;-77
2024/02/22 09:10:28;;;;;;;29.35;12.80;;;;;;;;;;5036388;28;20312;-77
2024/02/22 09:12:54;;;;;;;25.80;13.13;;;;;;;;;;5026340;28;20703;-77
2024/02/22 09:15:19;;;;;;;21.90;12.68;;;;;;;;;;5028421;28;20694;-77
2024/02/22 09:17:45;;;;;;;23.63;13.60;;;;;;;;;;5028658;28;20186;-77
2024/02/22 09:20:18;;;;;;;21.80;12.32;;;;;;;;;;5016059;28;20217;-77
2024/02/22 09:22:43;;;;;;;24.23;12.32;;;;;;;;;;5025552;28;20205;-77
2024/02/22 09:25:10;;;;;;;23.13;12.32;;;;;;;;;;5035458;28;20657;-78
2024/02/22 09:27:36;;;;;;;24.20;12.80;;;;;;;;;;5030624;28;20545;-78
2024/02/22 09:30:03;;;;;;;20.27;12.50;;;;;;;;;;5037512;28;20204;-78
2024/02/22 09:32:29;;;;;;;20.33;11.95;;;;;;;;;;5018857;28;20300;-78
2024/02/22 09:34:55;;;;;;;20.33;11.30;;;;;;;;;;5015736;28;20644;-78
2024/02/22 09:37:21;;;;;;;22.30;11.95;;;;;;;;;;5045386;28;20395;-77
2024/02/22 09:39:50;;;;;;;17.95;11.48;;;;;;;;;;5035661;28;20185;-78
2024/02/22 09:42:16;;;;;;;22.80;10.18;;;;;;;;;;5017682;28;20908;-78
2024/02/22 09:44:43;;;;;;;18.25;9.65;;;;;;;;;;5018193;28;20182;-79
2024/02/22 09:47:08;;;;;;;11.55;9.30;;;;;;;;;;5048960;28;20367;-78
2024/02/22 09:49:34;;;;;;;13.82;8.60;;;;;;;;;;5033050;28;20214;-77
2024/02/22 09:52:00;;;;;;;16.60;7.55;;;;;;;;;;5030168;28;20245;-77
2024/02/22 09:54:25;;;;;;;13.25;8.18;;;;;;;;;;5028425;28;20194;-77
2024/02/22 09:56:51;;;;;;;16.20;8.30;;;;;;;;;;5045218;28;20197;-77
2024/02/22 09:59:18;;;;;;;11.57;7.47;;;;;;;;;;5034177;28;20189;-78
2024/02/22 10:01:44;;;;;;;12.82;6.57;;;;;;;;;;5016714;28;20267;-79
2024/02/22 10:04:23;;;;;;;10.50;6.90;;;;;;;;;;5017932;28;20664;-82
2024/02/22 10:06:49;;;;;;;13.68;6.80;;;;;;;;;;5015232;28;20271;-78
2024/02/22 10:09:16;;;;;;;9.30;5.70;;;;;;;;;;5017025;28;20500;-77
2024/02/22 10:11:46;;;;;;;7.75;4.90;;;;;;;;;;5014176;28;20251;-78
2024/02/22 10:14:15;;;;;;;7.15;4.57;;;;;;;;;;5029698;28;20209;-80
2024/02/22 10:16:41;;;;;;;5.13;4.55;;;;;;;;;;5007542;28;20243;-78
2024/02/22 10:19:11;;;;;;;4.50;3.97;;;;;;;;;;5036992;28;20233;-81
2024/02/22 10:21:37;;;;;;;4.75;4.20;;;;;;;;;;5050928;28;20181;-78
2024/02/22 10:24:03;;;;;;;6.00;4.30;;;;;;;;;;5027827;28;20657;-77
2024/02/22 10:26:29;;;;;;;5.20;3.90;;;;;;;;;;5015378;28;20252;-77
2024/02/22 10:28:56;;;;;;;4.20;3.80;;;;;;;;;;5027075;28;20190;-79
2024/02/22 10:31:22;;;;;;;5.03;4.25;;;;;;;;;;5028226;28;20202;-78
2024/02/22 10:33:48;;;;;;;5.55;4.25;;;;;;;;;;5039172;28;20190;-79
2024/02/22 10:36:16;;;;;;;4.50;4.10;;;;;;;;;;5042044;28;20197;-78
2024/02/22 10:38:42;;;;;;;5.45;4.30;;;;;;;;;;5017063;28;20190;-77
2024/02/22 10:41:13;;;;;;;5.35;4.30;;;;;;;;;;5037867;28;20238;-77
2024/02/22 10:43:42;;;;;;;4.57;4.13;;;;;;;;;;5017936;28;20202;-77
2024/02/22 10:46:12;;;;;;;4.03;3.65;;;;;;;;;;5033669;28;20190;-77
2024/02/22 10:48:44;;;;;;;4.03;3.63;;;;;;;;;;5037584;28;20657;-77
2024/02/22 10:51:10;;;;;;;3.10;2.80;;;;;;;;;;5040324;28;20315;-77
2024/02/22 10:53:39;;;;;;;3.92;2.20;;;;;;;;;;5015917;28;20193;-77
2024/02/22 10:56:06;;;;;;;2.47;2.28;;;;;;;;;;5013895;28;20193;-79
2024/02/22 10:58:34;;;;;;;2.00;1.90;;;;;;;;;;5013733;28;20652;-77
2024/02/22 11:01:06;;;;;;;3.38;2.08;;;;;;;;;;5031932;28;20178;-77
2024/02/22 11:03:33;;;;;;;4.93;2.00;;;;;;;;;;5018999;28;20186;-78
2024/02/22 11:06:03;;;;;;;4.00;2.00;;;;;;;;;;5039955;28;20562;-77
2024/02/22 11:08:29;;;;;;;2.50;2.30;;;;;;;;;;5034393;28;20552;-78
2024/02/22 11:11:07;;;;;;;4.05;2.22;;;;;;;;;;5023553;28;20213;-77
2024/02/22 11:13:39;;;;;;;3.08;2.40;;;;;;;;;;5038511;28;20235;-79
2024/02/22 11:16:16;;;;;;;3.45;2.97;;;;;;;;;;5038571;28;20197;-77
2024/02/22 11:18:42;;;;;;;3.08;2.88;;;;;;;;;;5028450;28;20233;-77
2024/02/22 11:21:12;;;;;;;3.40;3.10;;;;;;;;;;5025107;28;20182;-77
2024/02/22 11:23:37;;;;;;;2.97;2.78;;;;;;;;;;5024111;28;20658;-78
2024/02/22 11:26:03;;;;;;;3.97;3.67;;;;;;;;;;5041122;28;20213;-78
2024/02/22 11:28:28;;;;;;;5.22;3.85;;;;;;;;;;5019585;28;20678;-78
2024/02/22 11:30:53;;;;;;;4.47;4.07;;;;;;;;;;5046444;28;20233;-77
2024/02/22 11:33:22;;;;;;;5.20;4.80;;;;;;;;;;5050234;28;20358;-77
2024/02/22 11:35:53;;;;;;;5.97;5.47;;;;;;;;;;5036786;28;20657;-77
2024/02/22 11:38:20;;;;;;;6.57;5.97;;;;;;;;;;5028652;28;20789;-77
2024/02/22 11:40:46;;;;;;;8.27;7.57;;;;;;;;;;5035644;28;20181;-77
2024/02/22 11:43:11;;;;;;;8.80;7.97;;;;;;;;;;5029035;28;20466;-77
2024/02/22 11:45:38;;;;;;;11.20;8.55;;;;;;;;;;5031898;28;20611;-77
2024/02/22 11:48:05;;;;;;;9.93;8.88;;;;;;;;;;5034433;28;20189;-77
2024/02/22 11:50:31;;;;;;;9.93;8.98;;;;;;;;;;5043306;28;20186;-78
2024/02/22 11:52:58;;;;;;;10.63;9.55;;;;;;;;;;5043762;28;20188;-77
2024/02/22 11:55:24;;;;;;;10.40;9.40;;;;;;;;;;5035543;28;20201;-77
2024/02/22 11:57:50;;;;;;;10.35;9.40;;;;;;;;;;5018104;28;20181;-77
2024/02/22 12:00:15;;;;;;;10.82;9.82;;;;;;;;;;5046209;28;20195;-77
2024/02/22 12:02:41;;;;;;;10.25;9.25;;;;;;;;;;5031698;28;20214;-77
2024/02/22 12:05:09;;;;;;;10.00;9.00;;;;;;;;;;5035488;28;20186;-77
2024/02/22 12:07:36;;;;;;;10.50;9.40;;;;;;;;;;5029715;28;20181;-77
2024/02/22 12:10:03;;;;;;;10.25;9.13;;;;;;;;;;4351726;28;10000780;-77
2024/02/22 12:12:31;;;;;;;12.43;9.98;;;;;;;;;;5060795;28;20228;-77
2024/02/22 12:14:58;;;;;;;11.60;9.02;;;;;;;;;;5039293;28;20277;-78
2024/02/22 12:17:28;;;;;;;9.70;8.80;;;;;;;;;;5031467;28;20229;-78
2024/02/22 12:19:54;;;;;;;11.57;9.25;;;;;;;;;;5034539;28;20283;-77
2024/02/22 12:22:20;;;;;;;9.70;8.82;;;;;;;;;;5038597;28;20182;-77
2024/02/22 12:24:48;;;;;;;9.30;8.45;;;;;;;;;;5032658;28;20672;-78
2024/02/22 12:27:15;;;;;;;10.43;7.80;;;;;;;;;;5044649;28;20239;-77
2024/02/22 12:29:40;;;;;;;10.98;7.97;;;;;;;;;;5037792;28;20648;-77
2024/02/22 12:32:06;;;;;;;9.88;7.13;;;;;;;;;;5044561;28;20213;-77
2024/02/22 12:34:32;;;;;;;8.80;7.25;;;;;;;;;;5029287;28;20242;-77
2024/02/22 12:36:57;;;;;;;7.43;6.63;;;;;;;;;;5045170;28;20182;-77
2024/02/22 12:39:25;;;;;;;9.68;7.47;;;;;;;;;;5031836;28;20628;-77
2024/02/22 12:41:50;;;;;;;7.85;6.85;;;;;;;;;;5022032;28;20272;-77
2024/02/22 12:44:16;;;;;;;8.13;7.32;;;;;;;;;;5041816;28;20192;-77
2024/02/22 12:46:41;;;;;;;8.70;7.90;;;;;;;;;;5039494;28;20190;-77
2024/02/22 12:49:07;;;;;;;9.57;8.18;;;;;;;;;;5035922;28;20273;-77
2024/02/22 12:51:32;;;;;;;9.15;8.35;;;;;;;;;;5015915;28;20210;-77
2024/02/22 12:53:58;;;;;;;9.20;8.40;;;;;;;;;;5033919;28;20533;-76
2024/02/22 12:56:23;;;;;;;8.95;8.05;;;;;;;;;;5041225;28;20198;-77
2024/02/22 12:58:49;;;;;;;8.25;7.55;;;;;;;;;;5034845;28;20221;-77
2024/02/22 13:01:15;;;;;;;8.27;7.22;;;;;;;;;;5035568;28;20177;-77
2024/02/22 13:03:41;;;;;;;7.75;7.03;;;;;;;;;;5018782;28;20691;-77
2024/02/22 13:06:06;;;;;;;8.25;6.70;;;;;;;;;;5045556;28;20201;-77
2024/02/22 13:08:32;;;;;;;8.15;7.35;;;;;;;;;;5039016;28;20678;-76
2024/02/22 13:10:58;;;;;;;7.30;6.60;;;;;;;;;;5026666;28;20210;-77
2024/02/22 13:13:24;;;;;;;7.40;6.70;;;;;;;;;;5034761;28;20653;-77
2024/02/22 13:15:49;;;;;;;6.90;6.30;;;;;;;;;;5039373;28;20189;-77
2024/02/22 13:18:15;;;;;;;7.18;6.47;;;;;;;;;;5040774;28;20233;-77
2024/02/22 13:20:43;;;;;;;6.50;5.90;;;;;;;;;;5038910;28;20257;-78
2024/02/22 13:23:08;;;;;;;5.85;5.35;;;;;;;;;;5034621;28;20602;-77
2024/02/22 13:25:34;;;;;;;6.93;5.30;;;;;;;;;;5035720;28;20193;-77
2024/02/22 13:28:00;;;;;;;6.05;5.43;;;;;;;;;;5030515;28;20190;-77
2024/02/22 13:30:25;;;;;;;5.22;4.72;;;;;;;;;;5042008;28;20205;-77
2024/02/22 13:32:51;;;;;;;5.10;4.47;;;;;;;;;;5036056;28;20261;-77
2024/02/22 13:35:16;;;;;;;4.93;4.53;;;;;;;;;;5045996;28;20181;-77
2024/02/22 13:37:42;;;;;;;5.15;4.75;;;;;;;;;;5031164;28;20643;-77
2024/02/22 13:40:09;;;;;;;6.15;4.20;;;;;;;;;;5041931;28;20181;-78
2024/02/22 13:42:35;;;;;;;4.68;4.25;;;;;;;;;;5028313;28;20186;-77
2024/02/22 13:45:04;;;;;;;4.57;4.28;;;;;;;;;;5035666;28;20177;-78
2024/02/22 13:47:30;;;;;;;4.93;4.53;;;;;;;;;;5017599;28;20251;-77
2024/02/22 13:49:57;;;;;;;5.18;4.78;;;;;;;;;;5042524;28;20629;-77
2024/02/22 13:52:24;;;;;;;4.93;4.53;;;;;;;;;;5037007;28;20600;-77
2024/02/22 13:54:51;;;;;;;6.25;4.50;;;;;;;;;;5049000;28;20209;-77
2024/02/22 13:57:16;;;;;;;4.75;4.32;;;;;;;;;;5023380;28;20206;-77
2024/02/22 13:59:42;;;;;;;4.93;4.57;;;;;;;;;;5040826;28;20182;-77
2024/02/22 14:02:07;;;;;;;4.93;4.53;;;;;;;;;;5012155;28;20254;-77
2024/02/22 14:04:33;;;;;;;4.63;4.32;;;;;;;;;;5019283;28;20173;-77
2024/02/22 14:07:00;;;;;;;6.15;4.40;;;;;;;;;;5048126;28;20700;-77
2024/02/22 14:09:25;;;;;;;5.03;4.63;;;;;;;;;;5051428;28;20205;-77
2024/02/22 14:11:50;;;;;;;5.15;4.75;;;;;;;;;;5041074;28;20247;-77
2024/02/22 14:14:16;;;;;;;5.95;5.43;;;;;;;;;;5028768;28;20244;-77
2024/02/22 14:16:42;;;;;;;5.88;5.45;;;;;;;;;;5032979;28;20248;-77
2024/02/22 14:19:07;;;;;;;6.47;5.88;;;;;;;;;;5038414;28;20236;-78
2024/02/22 14:21:33;;;;;;;6.80;6.07;;;;;;;;;;5046783;28;20186;-78
2024/02/22 14:23:58;;;;;;;6.53;6.03;;;;;;;;;;5031778;28;20186;-76
2024/02/22 14:26:24;;;;;;;9.05;6.53;;;;;;;;;;5043971;28;20440;-77